CheckWX is a tool to help pilots better visualize weather data.  It is not intended as a substitute for an official pre-flight weather briefing.

18:38:18 UTC

KSDM METAR
Brown Field Municipal Airport
San Diego, California, USA
Current

45 mins ago

KSDM 261753Z VRB04KT 9SM CLR 17/12 A3005 RMK AO2 SLP174 T01670117 10167 20072 51012
Observed
Mar-26 @ 17:53 UTC
Wind
  • Variable at 4 KTS
Visibility
9 SM
Flight Rules
VFR
Cloud Levels
  • Clear skies
Temperature
17°C / 63°F
Dewpoint
12°C / 54°F
Humidity
73%
Altimeter
30.05" Hg
Pressure
1017.4 hPa
Previous

2 hours ago

KSDM 261653Z 00000KT 3SM HZ CLR 15/11 A3004 RMK AO2 SLP172 T01500111
Observed
Mar-26 @ 16:53 UTC
Visibility
3 SM
Flight Rules
MVFR
Conditions
Haze
Cloud Levels
  • Clear skies
Temperature
15°C / 59°F
Dewpoint
11°C / 52°F
Humidity
77%
Altimeter
30.04" Hg
Pressure
1017.2 hPa
Previous

2 hours ago

KSDM 261634Z 00000KT 2SM BR FEW002 14/12 A3004 RMK AO2 T01390117
Observed
Mar-26 @ 16:34 UTC
Visibility
2 SM
Flight Rules
IFR
Conditions
Mist
Cloud Levels
  • Few at 200' AGL
Temperature
14°C / 57°F
Dewpoint
12°C / 54°F
Humidity
88%
Altimeter
30.04" Hg
Pressure
1017.32 hPa